createdAt,value
2022-07-26T00:01:31.755Z,101368.13
2022-07-26T00:04:02.565Z,101371.53
2022-07-26T00:06:30.882Z,101374.88
2022-07-26T00:08:59.465Z,101365.56
2022-07-26T00:11:28.820Z,101366.38
2022-07-26T00:13:57.171Z,101387.38
2022-07-26T00:16:25.860Z,101385.53
2022-07-26T00:18:54.611Z,101380.47
2022-07-26T00:21:24.807Z,101367.66
2022-07-26T00:23:53.347Z,101370.16
2022-07-26T00:26:21.679Z,101371.13
2022-07-26T00:28:50.026Z,101393.84
2022-07-26T00:31:18.443Z,101378.13
2022-07-26T00:33:46.763Z,101371.91
2022-07-26T00:36:15.147Z,101401.84
2022-07-26T00:38:44.853Z,101406.19
2022-07-26T00:41:13.183Z,101399.19
2022-07-26T00:43:56.745Z,101375.69
2022-07-26T00:46:25.293Z,101403.94
2022-07-26T00:48:53.760Z,101377.63
2022-07-26T00:51:22.982Z,101403.06
2022-07-26T00:53:52.736Z,101407.25
2022-07-26T00:56:21.681Z,101408.97
2022-07-26T00:58:50.141Z,101380.78
2022-07-26T01:01:18.529Z,101409.16
2022-07-26T01:03:47.466Z,101374.97
2022-07-26T01:06:15.828Z,101410.13
2022-07-26T01:08:44.369Z,101410.00
2022-07-26T01:11:14.311Z,101387.81
2022-07-26T01:13:48.435Z,101387.94
2022-07-26T01:16:17.356Z,101385.41
2022-07-26T01:18:46.057Z,101358.09
2022-07-26T01:21:14.692Z,101398.41
2022-07-26T01:23:45.478Z,101400.19
2022-07-26T01:26:14.109Z,101411.53
2022-07-26T01:28:43.257Z,101378.47
2022-07-26T01:31:12.380Z,101421.63
2022-07-26T01:33:40.942Z,101382.00
2022-07-26T01:36:10.035Z,101403.78
2022-07-26T01:38:38.462Z,101405.78
2022-07-26T01:41:08.296Z,101414.63
2022-07-26T01:43:36.702Z,101418.31
2022-07-26T01:46:06.508Z,101397.41
2022-07-26T01:48:35.527Z,101416.72
2022-07-26T01:51:05.301Z,101395.47
2022-07-26T01:53:33.771Z,101405.16
2022-07-26T01:56:02.116Z,101430.53
2022-07-26T01:58:31.978Z,101422.50
2022-07-26T02:01:00.331Z,101412.84
2022-07-26T02:03:29.058Z,101412.91
2022-07-26T02:05:57.377Z,101434.91
2022-07-26T02:08:25.850Z,101403.69
2022-07-26T02:11:04.197Z,101432.00
2022-07-26T02:13:36.065Z,101448.81
2022-07-26T02:16:06.685Z,101444.38
2022-07-26T02:18:36.612Z,101440.81
2022-07-26T02:21:06.852Z,101421.47
2022-07-26T02:23:36.114Z,101438.94
2022-07-26T02:26:10.257Z,101442.59
2022-07-26T02:28:39.997Z,101449.75
2022-07-26T02:31:08.327Z,101453.31
2022-07-26T02:33:36.745Z,101452.53
2022-07-26T02:36:05.816Z,101453.44
2022-07-26T02:38:34.141Z,101409.38
2022-07-26T02:41:02.510Z,101416.22
2022-07-26T02:43:32.377Z,101447.88
2022-07-26T02:46:02.694Z,101461.91
2022-07-26T02:48:31.845Z,101428.44
2022-07-26T02:51:00.522Z,101433.63
2022-07-26T02:53:29.315Z,101409.78
2022-07-26T02:55:57.664Z,101425.75
2022-07-26T02:58:27.019Z,101430.94
2022-07-26T03:00:55.780Z,101454.53
2022-07-26T03:03:25.767Z,101420.06
2022-07-26T03:05:54.114Z,101460.50
2022-07-26T03:08:22.861Z,101451.66
2022-07-26T03:10:51.253Z,101442.34
2022-07-26T03:13:20.059Z,101416.97
2022-07-26T03:15:48.516Z,101465.44
2022-07-26T03:18:17.254Z,101459.13
2022-07-26T03:20:46.952Z,101434.44
2022-07-26T03:23:15.335Z,101461.78
2022-07-26T03:25:44.220Z,101453.84
2022-07-26T03:28:18.901Z,101459.00
2022-07-26T03:30:47.977Z,101459.88
2022-07-26T03:33:16.406Z,101457.13
2022-07-26T03:35:46.070Z,101462.34
2022-07-26T03:38:15.566Z,101466.88
2022-07-26T03:40:43.890Z,101440.31
2022-07-26T03:43:12.235Z,101470.31
2022-07-26T03:45:40.599Z,101474.88
2022-07-26T03:48:12.157Z,101468.81
2022-07-26T03:50:41.378Z,101457.34
2022-07-26T03:53:11.266Z,101459.16
2022-07-26T03:55:57.208Z,101464.69
2022-07-26T03:58:25.546Z,101490.25
2022-07-26T04:01:08.957Z,101491.09
2022-07-26T04:03:38.017Z,101491.19
2022-07-26T04:06:07.037Z,101480.69
2022-07-26T04:08:37.208Z,101466.63
2022-07-26T04:11:05.763Z,101494.69
2022-07-26T04:13:35.441Z,101504.88
2022-07-26T04:16:04.362Z,101506.66
2022-07-26T04:18:33.094Z,101504.88
2022-07-26T04:21:01.887Z,101477.59
2022-07-26T04:23:30.274Z,101485.47
2022-07-26T04:26:00.169Z,101504.03
2022-07-26T04:28:29.074Z,101496.28
2022-07-26T04:30:57.872Z,101503.34
2022-07-26T04:33:26.301Z,101518.31
2022-07-26T04:35:55.254Z,101504.19
2022-07-26T04:38:23.911Z,101490.09
2022-07-26T04:40:52.748Z,101519.91
2022-07-26T04:43:22.761Z,101527.94
2022-07-26T04:45:51.608Z,101477.78
2022-07-26T04:48:20.099Z,101517.31
2022-07-26T04:50:48.462Z,101526.09
2022-07-26T04:53:17.146Z,101456.56
2022-07-26T04:55:45.788Z,101506.59
2022-07-26T04:58:14.200Z,101517.94
2022-07-26T05:01:08.408Z,101480.72
2022-07-26T05:03:32.924Z,101514.16
2022-07-26T05:06:01.432Z,101491.09
2022-07-26T05:08:29.743Z,101504.91
2022-07-26T05:10:58.150Z,101532.34
2022-07-26T05:13:30.483Z,101506.97
2022-07-26T05:16:01.917Z,101533.44
2022-07-26T05:18:45.542Z,101500.75
2022-07-26T05:21:17.441Z,101546.56
2022-07-26T05:23:45.979Z,101545.94
2022-07-26T05:26:14.470Z,101546.81
2022-07-26T05:28:43.132Z,101552.09
2022-07-26T05:31:13.035Z,101509.00
2022-07-26T05:33:41.391Z,101533.63
2022-07-26T05:36:10.368Z,101550.47
2022-07-26T05:38:38.851Z,101544.47
2022-07-26T05:41:07.828Z,101518.88
2022-07-26T05:43:41.511Z,101522.25
2022-07-26T05:46:13.322Z,101543.50
2022-07-26T05:48:42.063Z,101550.53
2022-07-26T05:51:11.362Z,101526.66
2022-07-26T05:53:40.155Z,101512.66
2022-07-26T05:56:09.288Z,101554.16
2022-07-26T05:58:38.512Z,101556.81
2022-07-26T06:01:07.443Z,101566.63
2022-07-26T06:03:37.182Z,101566.53
2022-07-26T06:06:06.182Z,101546.28
2022-07-26T06:08:35.207Z,101574.50
2022-07-26T06:11:03.607Z,101576.25
2022-07-26T06:13:32.187Z,101573.44
2022-07-26T06:16:00.699Z,101571.63
2022-07-26T06:18:29.010Z,101552.09
2022-07-26T06:21:02.338Z,101559.97
2022-07-26T06:23:34.059Z,101586.88
2022-07-26T06:26:05.150Z,101550.50
2022-07-26T06:28:34.616Z,101575.41
2022-07-26T06:31:03.051Z,101566.53
2022-07-26T06:33:31.491Z,101592.69
2022-07-26T06:36:01.382Z,101592.09
2022-07-26T06:38:29.807Z,101585.81
2022-07-26T06:40:58.097Z,101610.28
2022-07-26T06:43:26.626Z,101595.06
2022-07-26T06:45:55.674Z,101620.25
2022-07-26T06:48:24.222Z,101624.78
2022-07-26T06:50:52.895Z,101615.41
2022-07-26T06:53:22.840Z,101613.78
2022-07-26T06:55:51.211Z,101632.28
2022-07-26T06:58:19.498Z,101618.31
2022-07-26T07:00:48.029Z,101612.00
2022-07-26T07:03:17.093Z,101602.47
2022-07-26T07:05:49.725Z,101654.38
2022-07-26T07:08:20.096Z,101632.22
2022-07-26T07:10:50.815Z,101656.34
2022-07-26T07:13:20.121Z,101659.03
2022-07-26T07:15:48.460Z,101674.06
2022-07-26T07:18:17.017Z,101678.34
2022-07-26T07:20:45.554Z,101678.97
2022-07-26T07:23:13.873Z,101681.44
2022-07-26T07:25:44.883Z,101665.69
2022-07-26T07:28:14.772Z,101681.25
2022-07-26T07:30:43.298Z,101664.63
2022-07-26T07:33:22.849Z,101682.59
2022-07-26T07:35:53.847Z,101648.88
2022-07-26T07:38:22.564Z,101642.66
2022-07-26T07:40:51.551Z,101629.97
2022-07-26T07:43:21.371Z,101678.44
2022-07-26T07:45:49.781Z,101680.88
2022-07-26T07:48:18.251Z,101647.47
2022-07-26T07:50:46.965Z,101687.44
2022-07-26T07:53:15.409Z,101684.47
2022-07-26T07:55:46.161Z,101669.09
2022-07-26T07:58:17.255Z,101684.31
2022-07-26T08:00:48.508Z,101681.50
2022-07-26T08:03:18.831Z,101650.56
2022-07-26T08:05:49.612Z,101654.50
2022-07-26T08:08:22.025Z,101690.00
2022-07-26T08:10:53.240Z,101651.19
2022-07-26T08:13:23.015Z,101648.81
2022-07-26T08:15:54.358Z,101657.00
2022-07-26T08:18:25.631Z,101679.53
2022-07-26T08:20:55.439Z,101667.69
2022-07-26T08:23:24.373Z,101657.03
2022-07-26T08:25:58.664Z,101681.84
2022-07-26T08:28:47.878Z,101689.75
2022-07-26T08:31:20.191Z,101694.59
2022-07-26T08:33:49.557Z,101691.66
2022-07-26T08:36:18.773Z,101681.03
2022-07-26T08:38:47.755Z,101674.72
2022-07-26T08:41:18.204Z,101686.72
2022-07-26T08:43:52.793Z,101695.00
2022-07-26T08:46:27.769Z,101670.97
2022-07-26T08:48:57.850Z,101668.47
2022-07-26T08:51:27.880Z,101670.56
2022-07-26T08:54:05.385Z,101699.50
2022-07-26T08:56:36.434Z,101699.03
2022-07-26T08:59:07.576Z,101711.56
2022-07-26T09:01:50.834Z,101692.22
2022-07-26T09:04:30.937Z,101649.09
2022-07-26T09:07:04.839Z,101678.06
2022-07-26T09:09:34.613Z,101672.03
2022-07-26T09:12:18.249Z,101689.47
2022-07-26T09:14:47.874Z,101690.59
2022-07-26T09:17:19.832Z,101699.56
2022-07-26T09:20:05.025Z,101738.53
2022-07-26T09:22:33.530Z,101731.88
2022-07-26T09:25:02.468Z,101761.34
2022-07-26T09:27:37.260Z,101768.81
2022-07-26T09:30:10.813Z,101795.75
2022-07-26T09:32:40.681Z,101804.63
2022-07-26T09:35:44.681Z,101777.31
2022-07-26T09:38:14.765Z,101783.59
2022-07-26T09:40:44.836Z,101787.94
2022-07-26T09:43:24.630Z,101821.44
2022-07-26T09:46:07.104Z,101813.53
2022-07-26T09:49:09.260Z,101824.91
2022-07-26T09:51:41.887Z,101823.97
2022-07-26T09:54:12.337Z,101803.56
2022-07-26T09:56:48.531Z,101787.56
2022-07-26T09:59:19.492Z,101779.25
2022-07-26T10:01:49.256Z,101781.63
2022-07-26T10:04:19.981Z,101787.28
2022-07-26T10:06:48.898Z,101799.28
2022-07-26T10:09:18.412Z,101763.81
2022-07-26T10:11:56.083Z,101773.16
2022-07-26T10:14:44.742Z,101798.34
2022-07-26T10:17:46.365Z,101800.34
2022-07-26T10:20:46.628Z,101797.00
2022-07-26T10:23:41.546Z,101797.00
2022-07-26T10:26:14.087Z,101786.47
2022-07-26T10:28:42.972Z,101811.94
2022-07-26T10:31:32.059Z,101813.47
2022-07-26T10:34:02.718Z,101796.56
2022-07-26T10:36:37.021Z,101760.69
2022-07-26T10:39:10.208Z,101787.88
2022-07-26T10:41:46.275Z,101810.75
2022-07-26T10:44:22.463Z,101773.88
2022-07-26T10:47:18.151Z,101815.00
2022-07-26T10:49:57.339Z,101817.53
2022-07-26T10:52:30.048Z,101824.16
2022-07-26T10:55:18.121Z,101830.69
2022-07-26T10:57:50.428Z,101819.56
2022-07-26T11:00:25.518Z,101827.28
2022-07-26T11:02:59.614Z,101783.28
2022-07-26T11:05:33.827Z,101839.91
2022-07-26T11:08:09.221Z,101828.44
2022-07-26T11:10:41.348Z,101809.78
2022-07-26T11:13:14.140Z,101821.06
2022-07-26T11:15:45.580Z,101851.78
2022-07-26T11:18:21.336Z,101843.41
2022-07-26T11:20:54.075Z,101835.13
2022-07-26T11:23:27.710Z,101844.75
2022-07-26T11:26:15.855Z,101787.63
2022-07-26T11:29:00.531Z,101841.13
2022-07-26T11:31:51.120Z,101807.56
2022-07-26T11:34:30.655Z,101776.31
2022-07-26T11:37:00.932Z,101819.94
2022-07-26T11:39:33.650Z,101827.41
2022-07-26T11:42:06.219Z,101804.59
2022-07-26T11:44:35.788Z,101799.41
2022-07-26T11:47:13.593Z,101720.91
2022-07-26T11:50:00.593Z,101842.72
2022-07-26T11:52:32.520Z,101843.53
2022-07-26T11:55:02.376Z,101824.56
2022-07-26T11:57:32.907Z,101805.63
2022-07-26T12:00:02.487Z,101832.50
2022-07-26T12:02:39.934Z,101842.16
2022-07-26T12:05:16.834Z,101844.75
2022-07-26T12:08:00.581Z,101852.91
2022-07-26T12:10:30.655Z,101811.50
2022-07-26T12:13:11.091Z,101828.97
2022-07-26T12:15:48.946Z,101830.81
2022-07-26T12:18:26.021Z,101870.91
2022-07-26T12:21:05.731Z,101799.13
2022-07-26T12:23:44.356Z,101865.06
2022-07-26T12:26:28.546Z,101876.09
2022-07-26T12:28:59.792Z,101786.03
2022-07-26T12:31:31.030Z,101822.84
2022-07-26T12:34:00.375Z,101844.03
2022-07-26T12:36:30.154Z,101860.16
2022-07-26T12:39:00.140Z,101869.44
2022-07-26T12:41:36.300Z,101807.38
2022-07-26T12:44:06.143Z,101866.19
2022-07-26T12:46:36.838Z,101825.78
2022-07-26T12:49:06.438Z,101840.13
2022-07-26T12:51:35.499Z,101847.31
2022-07-26T12:54:06.219Z,101860.00
2022-07-26T12:56:36.228Z,101868.53
2022-07-26T12:59:04.596Z,101867.66
2022-07-26T13:01:33.590Z,101861.69
2022-07-26T13:04:02.299Z,101847.22
2022-07-26T13:06:32.891Z,101859.88
2022-07-26T13:09:01.862Z,101849.25
2022-07-26T13:11:30.393Z,101810.94
2022-07-26T13:14:00.159Z,101863.16
2022-07-26T13:16:28.730Z,101869.03
2022-07-26T13:18:57.088Z,101867.50
2022-07-26T13:21:25.634Z,101845.72
2022-07-26T13:24:01.986Z,101865.59
2022-07-26T13:26:30.490Z,101851.53
2022-07-26T13:29:01.192Z,101860.06
2022-07-26T13:31:29.600Z,101865.53
2022-07-26T13:33:58.003Z,101859.16
2022-07-26T13:36:26.424Z,101833.28
2022-07-26T13:38:54.839Z,101845.34
2022-07-26T13:41:23.481Z,101865.13
2022-07-26T13:43:53.967Z,101768.31
2022-07-26T13:46:32.692Z,101847.66
2022-07-26T13:49:04.220Z,101834.09
2022-07-26T13:51:51.994Z,101836.72
2022-07-26T13:54:22.064Z,101824.53
2022-07-26T13:56:51.645Z,101868.72
2022-07-26T13:59:20.442Z,101832.94
2022-07-26T14:01:50.939Z,101827.75
2022-07-26T14:04:20.179Z,101840.00
2022-07-26T14:06:48.875Z,101851.31
2022-07-26T14:09:18.925Z,101869.75
2022-07-26T14:11:47.346Z,101850.13
2022-07-26T14:14:15.868Z,101855.25
2022-07-26T14:16:49.410Z,101877.13
2022-07-26T14:19:19.642Z,101837.66
2022-07-26T14:21:59.965Z,101848.59
2022-07-26T14:24:29.966Z,101879.41
2022-07-26T14:26:59.679Z,101873.03
2022-07-26T14:29:28.490Z,101865.78
2022-07-26T14:31:57.582Z,101884.56
2022-07-26T14:34:27.470Z,101855.75
2022-07-26T14:36:55.953Z,101886.81
2022-07-26T14:39:24.309Z,101860.97
2022-07-26T14:41:52.728Z,101901.16
2022-07-26T14:44:21.183Z,101896.38
2022-07-26T14:46:49.619Z,101890.34
2022-07-26T14:49:18.461Z,101895.81
2022-07-26T14:51:48.486Z,101900.09
2022-07-26T14:54:17.681Z,101867.44
2022-07-26T14:56:46.038Z,101887.25
2022-07-26T14:59:14.488Z,101895.22
2022-07-26T15:01:43.192Z,101891.34
2022-07-26T15:04:12.072Z,101874.03
2022-07-26T15:06:40.725Z,101879.88
2022-07-26T15:09:10.460Z,101878.22
2022-07-26T15:11:38.906Z,101904.50
2022-07-26T15:14:07.668Z,101892.09
2022-07-26T15:16:36.439Z,101868.97
2022-07-26T15:19:05.030Z,101744.84
2022-07-26T15:21:33.457Z,101906.41
2022-07-26T15:24:02.600Z,101893.16
2022-07-26T15:26:35.573Z,101877.06
2022-07-26T15:29:03.996Z,101901.47
2022-07-26T15:31:36.904Z,101912.00
2022-07-26T15:34:08.589Z,101878.22
2022-07-26T15:36:37.402Z,101873.09
2022-07-26T15:39:16.558Z,101900.97
2022-07-26T15:41:48.350Z,101887.66
2022-07-26T15:44:18.232Z,101883.25
2022-07-26T15:46:48.647Z,101903.16
2022-07-26T15:49:18.406Z,101891.63
2022-07-26T15:51:46.981Z,101905.47
2022-07-26T15:54:16.382Z,101908.97
2022-07-26T15:56:45.562Z,101906.34
2022-07-26T15:59:15.582Z,101892.31
2022-07-26T16:01:46.247Z,101901.28
2022-07-26T16:04:15.052Z,101883.13
2022-07-26T16:06:43.790Z,101907.88
2022-07-26T16:09:17.894Z,101910.47
2022-07-26T16:11:48.382Z,101890.53
2022-07-26T16:14:19.139Z,101903.88
2022-07-26T16:16:47.700Z,101898.53
2022-07-26T16:19:16.368Z,101885.81
2022-07-26T16:21:45.258Z,101896.59
2022-07-26T16:24:13.826Z,101898.00
2022-07-26T16:26:43.532Z,101914.31
2022-07-26T16:29:12.248Z,101880.16
2022-07-26T16:31:42.620Z,101889.84
2022-07-26T16:34:12.164Z,101927.63
2022-07-26T16:36:40.748Z,101912.97
2022-07-26T16:39:09.543Z,101927.78
2022-07-26T16:41:38.188Z,101900.06
2022-07-26T16:44:06.888Z,101910.53
2022-07-26T16:46:35.410Z,101928.97
2022-07-26T16:49:05.452Z,101878.66
2022-07-26T16:51:34.004Z,101903.28
2022-07-26T16:54:02.505Z,101927.41
2022-07-26T16:56:30.901Z,101881.31
2022-07-26T16:58:59.510Z,101917.84
2022-07-26T17:01:28.093Z,101939.94
2022-07-26T17:03:56.509Z,101927.25
2022-07-26T17:06:26.350Z,101914.06
2022-07-26T17:08:54.831Z,101946.69
2022-07-26T17:11:23.220Z,101954.91
2022-07-26T17:13:53.369Z,101926.50
2022-07-26T17:16:24.595Z,101898.19
2022-07-26T17:18:53.749Z,101887.75
2022-07-26T17:21:22.560Z,101911.59
2022-07-26T17:23:53.156Z,101936.38
2022-07-26T17:26:21.775Z,101960.38
2022-07-26T17:28:50.135Z,101957.41
2022-07-26T17:31:18.503Z,101897.19
2022-07-26T17:33:46.870Z,101959.88
2022-07-26T17:36:24.705Z,101932.66
2022-07-26T17:38:55.563Z,101936.34
2022-07-26T17:41:32.485Z,101915.19
2022-07-26T17:44:03.524Z,101930.28
2022-07-26T17:46:33.396Z,101951.47
2022-07-26T17:49:02.179Z,101960.50
2022-07-26T17:51:30.679Z,101938.50
2022-07-26T17:54:00.778Z,101955.09
2022-07-26T17:56:29.202Z,101921.59
2022-07-26T17:58:57.963Z,101953.25
2022-07-26T18:01:27.571Z,101960.38
2022-07-26T18:03:56.020Z,101946.31
2022-07-26T18:06:24.406Z,101945.38
2022-07-26T18:08:52.883Z,101972.97
2022-07-26T18:11:22.635Z,101967.53
2022-07-26T18:13:51.157Z,101963.44
2022-07-26T18:16:19.863Z,101952.94
2022-07-26T18:18:48.273Z,101965.38
2022-07-26T18:21:16.608Z,101927.31
2022-07-26T18:24:00.597Z,101975.84
2022-07-26T18:26:34.715Z,101930.75
2022-07-26T18:29:03.336Z,101956.47
2022-07-26T18:31:31.806Z,101968.97
2022-07-26T18:34:05.928Z,101938.81
2022-07-26T18:36:35.094Z,101938.88
2022-07-26T18:39:03.565Z,101969.00
2022-07-26T18:41:32.874Z,101969.91
2022-07-26T18:44:04.239Z,101926.78
2022-07-26T18:46:32.687Z,101968.38
2022-07-26T18:49:02.384Z,101948.91
2022-07-26T18:51:31.058Z,101952.44
2022-07-26T18:54:00.270Z,101965.72
2022-07-26T18:56:28.822Z,101927.78
2022-07-26T18:58:58.237Z,101912.72
2022-07-26T19:01:28.060Z,101863.28
2022-07-26T19:03:56.574Z,101937.50
2022-07-26T19:06:25.054Z,101979.94
2022-07-26T19:08:53.391Z,101971.09
2022-07-26T19:11:21.775Z,101980.81
2022-07-26T19:13:50.242Z,101985.28
2022-07-26T19:16:18.962Z,101990.56
2022-07-26T19:18:51.715Z,101984.31
2022-07-26T19:21:22.412Z,101965.75
2022-07-26T19:23:50.981Z,101982.53
2022-07-26T19:26:19.440Z,101986.09
2022-07-26T19:28:47.832Z,101943.66
2022-07-26T19:31:16.384Z,101965.69
2022-07-26T19:33:44.841Z,102013.47
2022-07-26T19:36:18.104Z,102016.97
2022-07-26T19:38:55.756Z,101990.44
2022-07-26T19:41:24.721Z,102024.06
2022-07-26T19:43:53.124Z,102020.50
2022-07-26T19:46:21.736Z,102023.22
2022-07-26T19:48:50.556Z,102024.94
2022-07-26T19:51:20.414Z,102021.41
2022-07-26T19:53:49.162Z,102031.13
2022-07-26T19:56:17.638Z,102025.84
2022-07-26T19:58:46.949Z,102011.69
2022-07-26T20:01:15.397Z,102012.56
2022-07-26T20:03:43.969Z,102039.94
2022-07-26T20:06:12.393Z,102001.94
2022-07-26T20:08:42.133Z,102039.91
2022-07-26T20:11:11.159Z,101993.88
2022-07-26T20:13:39.665Z,102022.22
2022-07-26T20:16:08.392Z,102016.91
2022-07-26T20:18:36.884Z,102047.91
2022-07-26T20:21:05.638Z,102055.69
2022-07-26T20:23:34.099Z,101962.84
2022-07-26T20:26:03.872Z,102015.09
2022-07-26T20:28:32.382Z,102054.91
2022-07-26T20:31:00.948Z,102056.72
2022-07-26T20:33:29.310Z,102009.84
2022-07-26T20:35:57.806Z,102056.59
2022-07-26T20:38:26.256Z,102060.13
2022-07-26T20:40:54.669Z,102040.59
2022-07-26T20:43:24.469Z,102062.72
2022-07-26T20:45:55.420Z,102062.75
2022-07-26T20:48:24.072Z,102067.06
2022-07-26T20:50:52.540Z,102063.47
2022-07-26T20:53:21.139Z,102063.56
2022-07-26T20:56:02.355Z,102082.81
2022-07-26T20:58:30.980Z,102081.06
2022-07-26T21:00:59.390Z,102064.19
2022-07-26T21:03:27.730Z,102056.31
2022-07-26T21:05:56.130Z,102071.34
2022-07-26T21:08:24.572Z,102091.69
2022-07-26T21:10:53.035Z,102092.53
2022-07-26T21:13:22.934Z,102083.56
2022-07-26T21:15:53.368Z,102093.34
2022-07-26T21:18:22.158Z,102061.44
2022-07-26T21:20:50.700Z,102101.19
2022-07-26T21:23:19.155Z,102062.34
2022-07-26T21:25:48.621Z,102068.34
2022-07-26T21:28:27.864Z,102107.19
2022-07-26T21:30:56.594Z,102104.47
2022-07-26T21:33:25.018Z,102109.59
2022-07-26T21:35:53.467Z,102061.69
2022-07-26T21:38:21.827Z,102105.25
2022-07-26T21:40:50.228Z,102046.66
2022-07-26T21:43:19.591Z,102102.63
2022-07-26T21:45:49.361Z,102108.72
2022-07-26T21:48:17.930Z,101998.78
2022-07-26T21:50:46.207Z,102114.03
2022-07-26T21:53:14.696Z,102090.19
2022-07-26T21:55:43.160Z,102106.97
2022-07-26T21:58:11.607Z,102116.69
2022-07-26T22:00:40.192Z,102105.22
2022-07-26T22:03:10.276Z,102117.44
2022-07-26T22:05:39.022Z,102099.59
2022-07-26T22:08:10.258Z,102110.31
2022-07-26T22:10:43.459Z,102078.13
2022-07-26T22:13:14.470Z,102053.34
2022-07-26T22:15:44.072Z,102078.97
2022-07-26T22:18:15.016Z,102106.44
2022-07-26T22:20:47.419Z,102103.63
2022-07-26T22:23:16.416Z,102108.16
2022-07-26T22:25:45.734Z,102096.41
2022-07-26T22:28:18.001Z,102110.44
2022-07-26T22:30:47.403Z,102087.47
2022-07-26T22:33:17.111Z,102130.84
2022-07-26T22:35:45.418Z,102116.72
2022-07-26T22:38:14.213Z,102103.34
2022-07-26T22:40:44.385Z,102097.94
2022-07-26T22:43:14.519Z,102118.38
2022-07-26T22:45:43.614Z,102094.28
2022-07-26T22:48:12.079Z,102117.38
2022-07-26T22:50:41.846Z,102115.44
2022-07-26T22:53:10.172Z,102098.63
2022-07-26T22:55:38.788Z,102103.03
2022-07-26T22:58:07.265Z,102081.66
2022-07-26T23:00:35.833Z,102082.44
2022-07-26T23:03:04.547Z,102110.66
2022-07-26T23:05:46.331Z,102080.63
2022-07-26T23:08:44.440Z,102082.44
2022-07-26T23:11:06.583Z,102113.31
2022-07-26T23:13:35.132Z,102005.97
2022-07-26T23:16:03.627Z,102087.38
2022-07-26T23:18:34.034Z,102100.91
2022-07-26T23:21:03.791Z,102132.66
2022-07-26T23:23:34.006Z,102050.22
2022-07-26T23:26:02.530Z,102107.91
2022-07-26T23:28:36.249Z,102100.91
2022-07-26T23:31:08.963Z,102082.25
2022-07-26T23:33:50.611Z,102123.97
2022-07-26T23:36:23.801Z,102115.16
2022-07-26T23:38:54.589Z,102102.72
2022-07-26T23:41:23.221Z,102125.84
2022-07-26T23:43:51.958Z,102088.53
2022-07-26T23:46:20.435Z,102092.91
2022-07-26T23:48:49.151Z,102090.13
2022-07-26T23:51:19.371Z,102084.06
2022-07-26T23:53:48.349Z,102119.38
2022-07-26T23:56:18.759Z,102059.72
2022-07-26T23:58:47.221Z,102107.72
